• Join FlightAware (Why Join?)
  • Login
  • US Flag 
09:02PM EDT


 

Airport Tracker/Info


-or-


 

Live Flight TrackerFlight Track Log ✈ SWA127 ✈ 07-Apr-2013 ✈ KPIT - KMCO

Flight Track Log - Related Links

Times and Time Zones

All times are in EDT time to prevent confusion due to time zone crossing. See the SWA127 flight status page for this flight to view local times or setup timezone preferences in your user account.

Time Position Orientation Groundspeed Altitude Reporting Facility
EDT Latitude Longitude Course Direction KTS MPH feet Rate Location/Type
06:34AM 40.5036 -80.2844 272° West 167 192 2,500  Level FAA TRACON SMA TRACON (SMA)
06:34AM 40.5042 -80.3075 272° West 172 198 3,200 2,100 Climbing FAA TRACON SMA TRACON (SMA)
06:34AM 40.4939 -80.3153 210° Southwest 164 189 3,900 2,040 Climbing FAA TRACON SMA TRACON (SMA)
06:35AM 40.4747 -80.3142 177° South 203 234 4,600 2,100 Climbing FAA TRACON SMA TRACON (SMA)
06:35AM 40.4553 -80.3142 180° South 215 247 5,300 1,920 Climbing FAA TRACON SMA TRACON (SMA)
06:35AM 40.4358 -80.3136 179° South 245 282 5,900 2,700 Climbing FAA TRACON SMA TRACON (SMA)
06:36AM 40.4106 -80.3103 174° South 248 285 7,100 3,420 Climbing FAA TRACON SMA TRACON (SMA)
06:36AM 40.3872 -80.3097 179° South 255 293 8,200 3,120 Climbing FAA TRACON SMA TRACON (SMA)
06:36AM 40.3650 -80.3086 178° South 258 297 9,200 3,120 Climbing FAA TRACON SMA TRACON (SMA)
06:37AM 40.3386 -80.3078 179° South 263 303 10,300 2,520 Climbing FAA TRACON SMA TRACON (SMA)
06:37AM 40.3122 -80.3064 178° South 274 315 10,900 1,620 Climbing FAA TRACON SMA TRACON (SMA)
06:37AM 40.2842 -80.3056 179° South 320 368 11,400 2,220 Climbing FAA TRACON SMA TRACON (SMA)
06:38AM 40.2528 -80.3025 176° South 320 368 12,400 2,520 Climbing FAA TRACON SMA TRACON (SMA)
06:38AM 40.2208 -80.3036 182° South 343 395 13,100 2,400 Climbing FAA TRACON SMA TRACON (SMA)
06:38AM 40.1911 -80.3028 179° South 347 399 14,000 3,120 Climbing FAA TRACON SMA TRACON (SMA)
06:39AM 40.1539 -80.3008 178° South 345 397 15,200 3,300 Climbing FAA TRACON SMA TRACON (SMA)
06:39AM 40.1244 -80.3003 179° South 344 396 16,200 3,000 Climbing FAA TRACON SMA TRACON (SMA)
06:39AM 40.0950 -80.2994 179° South 344 396 17,200 3,120 Climbing FAA TRACON SMA TRACON (SMA)
06:40AM 40.0583 -80.2981 178° South 343 395 18,300 2,820 Climbing FAA TRACON SMA TRACON (SMA)
06:40AM 40.0289 -80.2969 178° South 343 395 19,100 2,460 Climbing FAA TRACON SMA TRACON (SMA)
06:40AM 39.9919 -80.2961 179° South 345 397 20,000 2,400 Climbing FAA TRACON SMA TRACON (SMA)
06:41AM 39.9619 -80.2950 178° South 348 400 20,700 1,980 Climbing FAA TRACON SMA TRACON (SMA)
06:41AM 39.9314 -80.2942 179° South 352 405 21,300 1,320 Climbing FAA TRACON SMA TRACON (SMA)
06:41AM 39.9161 -80.2936 178° South 354 407 21,600 240 Climbing FAA TRACON SMA TRACON (SMA)
06:42AM 39.9161 -80.2936 323° Northwest 354 407 21,600 1,800 Level FAA TRACON SMA TRACON (SMA)
06:43AM 39.7225 -80.2833 178° South 366 421 24,700 2,220 Climbing Washington Center
06:44AM 39.6100 -80.2814 179° South 391 450 26,100 1,440 Climbing Washington Center
06:45AM 39.4956 -80.2739 177° South 406 467 27,600 1,560 Climbing Washington Center
06:46AM 39.3789 -80.2717 179° South 420 483 29,300 1,500 Climbing Washington Center
06:47AM 39.2622 -80.2697 179° South 420 483 30,600 1,200 Climbing Washington Center
06:48AM 39.1508 -80.2972 191° South 420 483 31,700 1,140 Climbing Washington Center
06:49AM 39.0367 -80.3328 194° South 420 483 32,900 1,440 Climbing Washington Center
06:50AM 38.9272 -80.3628 192° South 415 478 34,600 1,320 Climbing Washington Center
06:51AM 38.8197 -80.3931 192° South 410 472 35,600 660 Climbing Washington Center
06:52AM 38.7094 -80.4367 197° South 410 472 36,000 180 Climbing Washington Center
06:53AM 38.5956 -80.4689 192° South 417 480 36,000  Level Washington Center
06:54AM 38.4878 -80.5017 193° South 417 480 36,000  Level Washington Center
06:55AM 38.3908 -80.5269 192° South 412 474 36,000  Level Washington Center
06:56AM 38.2772 -80.5486 189° South 412 474 36,000  Level Washington Center
06:57AM 38.1619 -80.5647 186° South 417 480 36,000  Level Washington Center
06:58AM 38.0464 -80.5833 187° South 417 480 36,000  Level Washington Center
06:59AM 37.9206 -80.5986 185° South 417 480 36,000  Level Washington Center
07:00AM 37.8072 -80.6175 188° South 417 480 36,000  Level Washington Center
07:02AM 37.5836 -80.6481 186° South 429 494 36,000  Level Atlanta Center
07:03AM 37.4672 -80.6608 185° South 424 488 36,000  Level Atlanta Center
07:04AM 37.3508 -80.6789 187° South 424 488 36,000  Level Atlanta Center
07:05AM 37.2347 -80.6944 186° South 424 488 36,000  Level Atlanta Center
07:06AM 37.1286 -80.7092 186° South 424 488 36,000  Level Atlanta Center
07:07AM 37.0125 -80.7247 186° South 424 488 36,000  Level Atlanta Center
07:08AM 36.8939 -80.7347 184° South 424 488 36,000  Level Atlanta Center
07:09AM 36.7628 -80.7481 185° South 424 488 36,000  Level Atlanta Center
07:10AM 36.6486 -80.7606 185° South 424 488 36,000  Level Atlanta Center
07:11AM 36.5342 -80.7728 185° South 424 488 36,000  Level Atlanta Center
07:12AM 36.4178 -80.7853 185° South 424 488 36,000  Level Atlanta Center
07:13AM 36.3011 -80.7978 185° South 424 488 36,000  Level Atlanta Center
07:14AM 36.1869 -80.8128 186° South 424 488 36,000  Level Atlanta Center
07:15AM 36.0808 -80.8222 184° South 424 488 36,000  Level Atlanta Center
07:16AM 35.9664 -80.8344 185° South 424 488 36,000  Level Atlanta Center
07:17AM 35.8500 -80.8467 185° South 424 488 36,000  Level Atlanta Center
07:18AM 35.7314 -80.8589 185° South 424 488 36,000  Level Atlanta Center
07:19AM 35.6022 -80.8717 185° South 424 488 36,000  Level Atlanta Center
07:20AM 35.4858 -80.8839 185° South 424 488 36,000  Level Atlanta Center
07:21AM 35.3692 -80.8983 186° South 424 488 36,000  Level Atlanta Center
07:23AM 35.1769 -80.9169 185° South 416 479 36,000  Level Jacksonville Center
07:24AM 35.0583 -80.9325 186° South 422 486 36,000  Level Jacksonville Center
07:25AM 34.9375 -80.9478 186° South 432 497 36,000  Level Jacksonville Center
07:26AM 34.8125 -80.9531 182° South 427 491 36,000  Level Jacksonville Center
07:27AM 34.6958 -80.9658 185° South 426 490 36,000  Level Jacksonville Center
07:28AM 34.5772 -80.9836 187° South 419 482 36,000  Level Jacksonville Center
07:29AM 34.4628 -80.9964 185° South 419 482 36,000  Level Jacksonville Center
07:30AM 34.3461 -81.0039 183° South 424 488 36,000  Level Jacksonville Center
07:31AM 34.2481 -81.0161 186° South 416 479 36,000  Level Jacksonville Center
07:32AM 34.1314 -81.0211 182° South 411 473 36,000  Level Jacksonville Center
07:33AM 34.0125 -81.0261 182° South 422 486 36,000  Level Jacksonville Center
07:34AM 33.8936 -81.0311 182° South 422 486 36,000  Level Jacksonville Center
07:35AM 33.7872 -81.0333 181° South 422 486 36,000  Level Jacksonville Center
07:36AM 33.6558 -81.0411 183° South 422 486 36,000  Level Jacksonville Center
07:37AM 33.5369 -81.0436 181° South 422 486 36,000  Level Jacksonville Center
07:38AM 33.4181 -81.0486 182° South 428 493 36,000  Level Jacksonville Center
07:39AM 33.2972 -81.0536 182° South 428 493 36,000  Level Jacksonville Center
07:40AM 33.1783 -81.0586 182° South 433 498 36,000  Level Jacksonville Center
07:41AM 33.0572 -81.0636 182° South 433 498 36,000  Level Jacksonville Center
07:42AM 32.9361 -81.0683 182° South 438 504 36,000  Level Jacksonville Center
07:43AM 32.8153 -81.0733 182° South 438 504 36,000  Level Jacksonville Center
07:44AM 32.6942 -81.0758 181° South 438 504 36,000  Level Jacksonville Center
07:45AM 32.5775 -81.0831 183° South 431 496 36,000 -300 Level Jacksonville Center
07:46AM 32.4458 -81.0881 182° South 425 489 35,400 -1,080 Descending Jacksonville Center
07:47AM 32.3228 -81.0881 180° South 441 507 33,900 -720 Descending Jacksonville Center
07:48AM 32.2061 -81.0953 183° South 431 496 34,000  Climbing Jacksonville Center
07:49AM 32.0892 -81.1000 182° South 418 481 34,000  Level Jacksonville Center
07:50AM 31.9722 -81.1047 182° South 423 487 34,000  Level Jacksonville Center
07:51AM 31.8681 -81.1067 181° South 423 487 34,000  Level Jacksonville Center
07:52AM 31.7344 -81.1119 182° South 423 487 34,000  Level Jacksonville Center
07:53AM 31.6175 -81.1164 182° South 423 487 34,000  Level Jacksonville Center
07:54AM 31.5089 -81.1186 181° South 423 487 34,000  Level Jacksonville Center
07:55AM 31.3817 -81.1208 181° South 423 487 34,000  Level Jacksonville Center
07:56AM 31.2775 -81.1328 186° South 423 487 34,000  Level Jacksonville Center
07:57AM 31.1500 -81.1350 181° South 413 475 34,000  Level Jacksonville Center
07:58AM 31.0333 -81.1422 183° South 418 481 34,000  Level Jacksonville Center
07:59AM 30.9122 -81.1467 182° South 423 487 34,000 -60 Level Jacksonville Center
08:00AM 30.7933 -81.1489 181° South 429 494 33,900  Descending Jacksonville Center
08:01AM 30.6744 -81.1536 182° South 429 494 34,000  Climbing Jacksonville Center
08:02AM 30.5572 -81.1508 179° South 424 488 34,000  Level Jacksonville Center
08:03AM 30.4342 -81.1506 180° South 424 488 34,000  Level Jacksonville Center
08:04AM 30.3108 -81.1458 178° South 435 501 34,000  Level Jacksonville Center
08:05AM 30.1919 -81.1431 179° South 435 501 34,000  Level Jacksonville Center
08:06AM 30.0706 -81.1356 177° South 440 506 34,000 -360 Level Jacksonville Center
08:07AM 29.9494 -81.1331 179° South 440 506 33,300 -2,100 Descending Jacksonville Center
08:08AM 29.8347 -81.1303 179° South 435 501 29,900 -3,060 Descending Jacksonville Center
08:09AM 29.7178 -81.1278 179° South 435 501 27,200 -2,640 Descending Jacksonville Center
08:10AM 29.6050 -81.1250 179° South 422 486 24,700 -2,520 Descending Jacksonville Center
08:11AM 29.4986 -81.1244 180° South 408 470 22,200 -2,400 Descending Jacksonville Center
08:12AM 29.3961 -81.1192 177° South 386 444 20,000 -2,220 Descending Jacksonville Center
08:13AM 29.2958 -81.1164 179° South 374 430 17,800 -2,220 Descending Jacksonville Center
08:14AM 29.1978 -81.1086 176° South 361 415 15,600 -2,280 Descending Jacksonville Center
08:15AM 29.1036 -81.0958 173° South 356 410 13,300 -1,800 Descending Jacksonville Center
08:16AM 29.0117 -81.0928 178° South 344 396 12,000 -1,260 Descending Jacksonville Center
08:17AM 28.9322 -81.0753 169° South 321 369 10,800 -1,500 Descending Jacksonville Center
08:17AM 28.8500 -81.0667 175° South 297 342 9,300 -1,920 Descending Orlando TRACON
08:18AM 28.7833 -81.0833 192° South 292 336 7,300 -1,740 Descending Orlando TRACON
08:19AM 28.7333 -81.1500 229° Southwest 277 319 5,900 -1,620 Descending Orlando TRACON
08:21AM 28.6833 -81.2167 229° Southwest 271 312 4,000 -1,380 Descending Orlando TRACON
08:22AM 28.6167 -81.2500 204° Southwest 249 287 3,100 -780 Descending Orlando TRACON
08:23AM 28.5667 -81.3000 221° Southwest 221 254 2,500 -720 Descending Orlando TRACON
08:24AM 28.5167 -81.3000 180° South 132 152 1,700 -840 Descending Orlando TRACON
08:24AM 28.4833 -81.3000 180° South 133 153 1,000 -780 Descending Orlando TRACON
08:26AM 28.4294 -81.3090 180° South  Level Estimated
08:33AM 28.4294 -81.3090 336° Northwest  Level Estimated
08:34AM 28.4294 -81.3090 336° Northwest  Level Estimated
08:35AM 28.4294 -81.3090 336° Northwest  Level Estimated
08:36AM 28.4294 -81.3090 336° Northwest  Level Estimated
08:37AM 28.4294 -81.3090 336° Northwest  Level Estimated